Country
Station

 

Weather  for  Prescott, Love Field  -  United States    United States

  
7 °C (45 °F)
    
 
 

Current METAR for Prescott, Love Field is :

KPRC 161253Z 20005KT 10SM CLR 07/M05 A3023 RMK AO2 SLP183 T00671050

 

This is a report for Prescott, Love Field - United States.
 
The report was made 15 minutes ago, at 12:53 UTC .
The wind was blowing at a speed of 2.6 meters per second (5.8 miles per hour) from south/southwest (200°).
 
The temperature was 7 °C (45 °F), with a dew-point at -5 °C (23 °F).
The atmospheric pressure was 1024 hPa (30.23 inHg).
The relative humidity was 42.0%.
 
The sky was clear.
 
The overall visibility was 16.1 kilometers (10.0 miles).
 

 
 
 
 

Country :   A   B   C   D   E   F   G   H   I   J   K   L   M   N   O   P   Q   R   S   T   U   V   W   Y   Z

 

Site Info  |  Disclaimer  |  Credits  |  Privacy
Contact us  |  Add to favorites
© 2013-2019 METARs - All rights reserved